Time;durP1;ratioP1;P1;durP2;ratioP2;P2;SDS_P1;SDS_P2;PMS_P1;PMS_P2;Temp;Humidity;BMP_temperature;BMP_pressure;BME280_temperature;BME280_humidity;BME280_pressure;Samples;Min_cycle;Max_cycle;Signal;HPM_P1;HPM_P2
2022/02/27 00:01:11;;;;;;;6.13;2.53;;;4.20;99.90;;;;;;5032627;28;20459;-64
2022/02/27 00:03:39;;;;;;;4.53;2.73;;;4.10;99.90;;;;;;5008977;28;20463;-64
2022/02/27 00:06:11;;;;;;;6.53;3.00;;;4.00;99.90;;;;;;5012653;28;20472;-64
2022/02/27 00:08:39;;;;;;;4.60;2.63;;;3.70;99.90;;;;;;5011503;28;20475;-64
2022/02/27 00:11:09;;;;;;;4.77;2.63;;;3.80;99.90;;;;;;5013485;28;20533;-64
2022/02/27 00:13:37;;;;;;;4.33;2.30;;;3.90;99.90;;;;;;4993763;28;20456;-64
2022/02/27 00:16:06;;;;;;;4.30;2.50;;;4.10;99.90;;;;;;5007439;28;20490;-64
2022/02/27 00:18:34;;;;;;;4.63;2.60;;;3.80;99.90;;;;;;5013068;28;20474;-64
2022/02/27 00:21:02;;;;;;;3.97;2.20;;;3.80;99.90;;;;;;5008665;28;21011;-64
2022/02/27 00:23:32;;;;;;;3.33;2.30;;;3.90;99.90;;;;;;5012908;28;20487;-64
2022/02/27 00:26:00;;;;;;;3.57;2.33;;;4.00;99.90;;;;;;5013015;28;20483;-64
2022/02/27 00:28:28;;;;;;;3.63;2.60;;;4.10;99.90;;;;;;5012875;28;20506;-64
2022/02/27 00:30:56;;;;;;;3.80;2.10;;;4.20;99.90;;;;;;5013145;28;20475;-64
2022/02/27 00:33:24;;;;;;;3.93;2.17;;;4.10;99.90;;;;;;5012898;28;20894;-62
2022/02/27 00:35:53;;;;;;;3.30;2.00;;;4.10;99.90;;;;;;5013179;28;20264;-64
2022/02/27 00:38:21;;;;;;;4.10;2.67;;;4.10;99.90;;;;;;5012995;28;20248;-64
2022/02/27 00:40:50;;;;;;;7.10;2.40;;;3.90;99.90;;;;;;5012894;28;20473;-64
2022/02/27 00:43:21;;;;;;;2.80;2.13;;;3.90;99.90;;;;;;5012884;28;20472;-64
2022/02/27 00:45:49;;;;;;;4.77;2.37;;;3.80;99.90;;;;;;5011397;28;20481;-64
2022/02/27 00:48:17;;;;;;;5.30;2.50;;;3.80;99.90;;;;;;5012871;28;20475;-62
2022/02/27 00:50:46;;;;;;;3.77;2.13;;;3.80;99.90;;;;;;4999977;28;21182;-64
2022/02/27 00:53:16;;;;;;;4.63;2.33;;;3.70;99.90;;;;;;5038490;28;21043;-64
2022/02/27 00:55:44;;;;;;;3.43;2.30;;;3.80;99.90;;;;;;5012555;28;20476;-63
2022/02/27 00:58:13;;;;;;;4.67;2.03;;;3.80;99.90;;;;;;5030915;28;20496;-64
2022/02/27 01:00:42;;;;;;;4.20;2.17;;;3.80;99.90;;;;;;5030759;28;21049;-64
2022/02/27 01:03:11;;;;;;;3.23;2.13;;;3.90;99.90;;;;;;5032376;28;20504;-64
2022/02/27 01:05:39;;;;;;;5.27;2.00;;;4.00;99.90;;;;;;5031288;28;20611;-64
2022/02/27 01:08:09;;;;;;;5.67;2.20;;;4.00;99.90;;;;;;5030607;28;20998;-64
2022/02/27 01:10:38;;;;;;;2.67;2.20;;;4.00;99.90;;;;;;5031973;28;20468;-64
2022/02/27 01:13:06;;;;;;;4.13;2.83;;;3.90;99.90;;;;;;5032086;28;20526;-64
2022/02/27 01:15:35;;;;;;;4.13;2.00;;;3.70;99.90;;;;;;5032653;28;20478;-64
2022/02/27 01:18:03;;;;;;;3.80;2.27;;;3.70;99.90;;;;;;5029820;28;20684;-64
2022/02/27 01:20:31;;;;;;;5.43;2.23;;;3.70;99.90;;;;;;5013427;28;20563;-64
2022/02/27 01:23:00;;;;;;;3.97;2.27;;;3.70;99.90;;;;;;5010555;28;21031;-64
2022/02/27 01:25:28;;;;;;;3.30;2.63;;;3.60;99.90;;;;;;5011975;28;20472;-64
2022/02/27 01:27:56;;;;;;;4.67;3.03;;;3.50;99.90;;;;;;5011983;28;20494;-63
2022/02/27 01:30:24;;;;;;;3.87;2.40;;;3.50;99.90;;;;;;5012035;28;20474;-64
2022/02/27 01:32:53;;;;;;;5.27;2.70;;;3.50;99.90;;;;;;5010201;28;20540;-64
2022/02/27 01:35:24;;;;;;;3.90;2.40;;;3.60;99.90;;;;;;5010354;28;20654;-64
2022/02/27 01:37:52;;;;;;;5.57;2.70;;;3.50;99.90;;;;;;5011131;28;20507;-64
2022/02/27 01:40:20;;;;;;;4.40;2.70;;;3.60;99.90;;;;;;5012004;28;20472;-64
2022/02/27 01:42:49;;;;;;;2.87;2.23;;;3.50;99.90;;;;;;5010243;28;20542;-64
2022/02/27 01:45:17;;;;;;;5.13;2.90;;;3.40;99.90;;;;;;5010888;28;20508;-64
2022/02/27 01:47:45;;;;;;;3.90;2.20;;;3.50;99.90;;;;;;5010861;28;20481;-64
2022/02/27 01:50:14;;;;;;;3.87;2.50;;;3.50;99.90;;;;;;5011709;28;20466;-64
2022/02/27 01:52:42;;;;;;;3.60;2.40;;;3.50;99.90;;;;;;5011475;28;20513;-64
2022/02/27 01:55:11;;;;;;;3.33;2.57;;;3.30;99.90;;;;;;5012066;28;20463;-64
2022/02/27 01:57:42;;;;;;;4.00;2.50;;;3.40;99.90;;;;;;4999861;28;20519;-64
2022/02/27 02:00:11;;;;;;;4.87;2.57;;;3.30;99.90;;;;;;4990627;28;20473;-64
2022/02/27 02:02:44;;;;;;;3.87;2.33;;;3.20;99.90;;;;;;5004901;28;20908;-64
2022/02/27 02:05:15;;;;;;;3.97;2.67;;;3.20;99.90;;;;;;5012433;28;20492;-64
2022/02/27 02:07:46;;;;;;;5.10;2.90;;;3.30;99.90;;;;;;5009662;28;20480;-64
2022/02/27 02:10:15;;;;;;;3.83;2.60;;;3.20;99.90;;;;;;5008606;28;20480;-64
2022/02/27 02:12:50;;;;;;;3.43;2.70;;;2.90;99.90;;;;;;5023887;28;20486;-64
2022/02/27 02:15:18;;;;;;;4.90;2.23;;;2.90;99.90;;;;;;5011093;28;20554;-64
2022/02/27 02:17:47;;;;;;;5.80;2.63;;;2.90;99.90;;;;;;5009793;28;20481;-64
2022/02/27 02:20:18;;;;;;;5.13;2.40;;;2.90;99.90;;;;;;5022785;28;21014;-64
2022/02/27 02:22:56;;;;;;;4.43;2.47;;;2.90;99.90;;;;;;5029510;28;20481;-64
2022/02/27 02:25:25;;;;;;;3.80;3.00;;;2.90;99.90;;;;;;5023716;28;20482;-64
2022/02/27 02:27:54;;;;;;;4.60;2.57;;;3.00;99.90;;;;;;5023420;28;20578;-64
2022/02/27 02:30:23;;;;;;;5.93;3.17;;;2.90;99.90;;;;;;5029595;28;20487;-64
2022/02/27 02:32:54;;;;;;;4.87;2.93;;;2.70;99.90;;;;;;5029385;28;20900;-63
2022/02/27 02:35:26;;;;;;;4.83;2.40;;;2.70;99.90;;;;;;5030854;28;20507;-64
2022/02/27 02:37:55;;;;;;;5.23;3.00;;;2.60;99.90;;;;;;5029238;28;20523;-64
2022/02/27 02:40:26;;;;;;;5.67;2.80;;;2.80;99.90;;;;;;5021322;28;21036;-63
2022/02/27 02:42:56;;;;;;;4.33;2.57;;;2.90;99.90;;;;;;5029113;28;20473;-64
2022/02/27 02:45:25;;;;;;;4.80;3.00;;;2.90;99.90;;;;;;5029250;28;20477;-64
2022/02/27 02:47:55;;;;;;;5.47;3.27;;;2.80;99.90;;;;;;5038916;28;20996;-64
2022/02/27 02:50:28;;;;;;;5.23;3.40;;;2.80;99.90;;;;;;5049035;28;20480;-64
2022/02/27 02:52:58;;;;;;;4.97;2.70;;;2.70;99.90;;;;;;5034168;28;20841;-64
2022/02/27 02:55:26;;;;;;;4.17;3.43;;;2.70;99.90;;;;;;5027181;28;20916;-63
2022/02/27 02:57:55;;;;;;;5.37;3.00;;;2.90;99.90;;;;;;5030372;28;20552;-64
2022/02/27 03:00:23;;;;;;;7.37;3.50;;;2.90;99.90;;;;;;5030561;28;20496;-64
2022/02/27 03:02:51;;;;;;;4.80;2.77;;;3.00;99.90;;;;;;5030336;28;20479;-64
2022/02/27 03:05:20;;;;;;;6.40;3.20;;;3.00;99.90;;;;;;5030459;28;20467;-64
2022/02/27 03:07:49;;;;;;;4.37;2.83;;;2.80;99.90;;;;;;5038363;28;20469;-64
2022/02/27 03:10:17;;;;;;;5.37;2.73;;;2.80;99.90;;;;;;5027385;28;20535;-64
2022/02/27 03:12:45;;;;;;;6.53;3.30;;;2.90;99.90;;;;;;5030150;28;20460;-64
2022/02/27 03:15:13;;;;;;;6.97;3.30;;;3.00;99.90;;;;;;5030396;28;20527;-64
2022/02/27 03:17:41;;;;;;;3.67;2.90;;;3.00;99.90;;;;;;5029997;28;20506;-64
2022/02/27 03:20:10;;;;;;;4.33;3.23;;;2.90;99.90;;;;;;5030689;28;20502;-64
2022/02/27 03:22:38;;;;;;;5.23;2.80;;;2.90;99.90;;;;;;5031259;28;20492;-64
2022/02/27 03:25:09;;;;;;;4.97;3.27;;;3.00;99.90;;;;;;5028681;28;20431;-64
2022/02/27 03:27:37;;;;;;;6.63;3.50;;;3.00;99.90;;;;;;5037328;28;20542;-64
2022/02/27 03:30:06;;;;;;;4.50;3.53;;;2.60;99.90;;;;;;5050153;28;20466;-64
2022/02/27 03:32:34;;;;;;;4.07;2.60;;;2.40;99.90;;;;;;5038311;28;20510;-64
2022/02/27 03:35:03;;;;;;;4.67;3.17;;;2.40;99.90;;;;;;5030273;28;20470;-64
2022/02/27 03:37:31;;;;;;;5.03;3.43;;;2.50;99.90;;;;;;5029278;28;20881;-64
2022/02/27 03:39:59;;;;;;;4.37;2.90;;;2.60;99.90;;;;;;5030238;28;21008;-64
2022/02/27 03:42:29;;;;;;;6.33;3.47;;;2.40;99.90;;;;;;5029869;28;20471;-64
2022/02/27 03:44:57;;;;;;;4.60;3.13;;;2.30;99.90;;;;;;5030332;28;20826;-64
2022/02/27 03:47:25;;;;;;;6.03;3.20;;;2.20;99.90;;;;;;5031611;28;20522;-63
2022/02/27 03:49:54;;;;;;;5.53;3.63;;;2.00;99.90;;;;;;5049976;28;20486;-64
2022/02/27 03:52:22;;;;;;;5.67;3.47;;;2.00;99.90;;;;;;5024173;28;20535;-64
2022/02/27 03:54:50;;;;;;;6.93;3.70;;;2.00;99.90;;;;;;5029940;28;20475;-64
2022/02/27 03:57:18;;;;;;;6.10;3.70;;;1.90;99.90;;;;;;5029596;28;20832;-64
2022/02/27 03:59:48;;;;;;;6.03;3.50;;;1.90;99.90;;;;;;5029745;28;20504;-64
2022/02/27 04:02:19;;;;;;;6.93;3.77;;;1.90;99.90;;;;;;5032718;28;20481;-64
2022/02/27 04:04:47;;;;;;;5.70;3.80;;;1.80;99.90;;;;;;5033314;28;20469;-64
2022/02/27 04:07:15;;;;;;;6.00;3.40;;;1.80;99.90;;;;;;5037713;28;20973;-64
2022/02/27 04:09:44;;;;;;;5.83;3.13;;;1.70;99.90;;;;;;5026166;28;20872;-64
2022/02/27 04:12:12;;;;;;;5.50;3.60;;;1.70;99.90;;;;;;5033070;28;21012;-64
2022/02/27 04:14:40;;;;;;;4.87;3.37;;;1.70;99.90;;;;;;5033132;28;20473;-64
2022/02/27 04:17:10;;;;;;;5.53;3.57;;;1.70;99.90;;;;;;5033061;28;20502;-64
2022/02/27 04:19:38;;;;;;;5.40;3.20;;;1.70;99.90;;;;;;5033156;28;20511;-64
2022/02/27 04:22:06;;;;;;;6.20;3.30;;;1.60;99.90;;;;;;5032720;28;20465;-64
2022/02/27 04:24:34;;;;;;;6.20;3.60;;;2.00;99.90;;;;;;5033024;28;20509;-64
2022/02/27 04:27:03;;;;;;;6.63;3.60;;;1.90;99.90;;;;;;5035625;28;20497;-64
2022/02/27 04:29:31;;;;;;;5.47;3.17;;;2.00;99.90;;;;;;5052931;28;20497;-63
2022/02/27 04:31:59;;;;;;;6.33;3.87;;;2.20;99.90;;;;;;5046517;28;20472;-64
2022/02/27 04:34:29;;;;;;;6.97;3.47;;;2.30;99.90;;;;;;5032905;28;20475;-64
2022/02/27 04:36:57;;;;;;;5.83;3.63;;;2.20;99.90;;;;;;5032788;28;20534;-63
2022/02/27 04:39:25;;;;;;;5.20;3.70;;;2.20;99.90;;;;;;5031320;28;20551;-64
2022/02/27 04:41:53;;;;;;;6.43;3.50;;;2.20;99.90;;;;;;5032681;28;20469;-64
2022/02/27 04:44:21;;;;;;;4.33;3.17;;;2.00;99.90;;;;;;5032736;28;20461;-64
2022/02/27 04:46:50;;;;;;;5.47;3.40;;;2.20;99.90;;;;;;5033480;28;20468;-64
2022/02/27 04:49:18;;;;;;;6.00;3.57;;;2.30;99.90;;;;;;5052462;28;20468;-64
2022/02/27 04:51:47;;;;;;;7.13;3.37;;;2.30;99.90;;;;;;5047253;28;20484;-64
2022/02/27 04:54:15;;;;;;;7.10;3.53;;;2.30;99.90;;;;;;5012879;28;20477;-64
2022/02/27 04:56:43;;;;;;;5.23;3.40;;;2.50;99.90;;;;;;5016978;28;20485;-63
2022/02/27 04:59:12;;;;;;;3.93;3.00;;;2.60;99.90;;;;;;5032399;28;20478;-64
2022/02/27 05:01:40;;;;;;;6.90;3.87;;;2.40;99.90;;;;;;5032097;28;20571;-64
2022/02/27 05:04:08;;;;;;;4.30;3.23;;;2.40;99.90;;;;;;5024269;28;20474;-64
2022/02/27 05:06:38;;;;;;;5.47;3.20;;;2.30;99.90;;;;;;5024028;28;21028;-64
2022/02/27 05:09:08;;;;;;;6.17;3.93;;;2.30;99.90;;;;;;5051991;28;20970;-64
2022/02/27 05:11:39;;;;;;;4.67;3.50;;;2.10;99.90;;;;;;5047628;28;20479;-64
2022/02/27 05:14:07;;;;;;;5.73;3.63;;;1.90;99.90;;;;;;5031273;28;20563;-64
2022/02/27 05:16:35;;;;;;;4.77;3.23;;;1.70;99.90;;;;;;5031796;28;20477;-64
2022/02/27 05:19:03;;;;;;;6.50;3.57;;;1.60;99.90;;;;;;5029980;28;20478;-64
2022/02/27 05:21:32;;;;;;;5.27;3.97;;;1.50;99.90;;;;;;5031607;28;21121;-64
2022/02/27 05:24:00;;;;;;;5.87;3.40;;;1.50;99.90;;;;;;5032259;28;20964;-63
2022/02/27 05:26:30;;;;;;;7.73;4.13;;;1.40;99.90;;;;;;5032131;28;20610;-64
2022/02/27 05:28:58;;;;;;;7.63;3.80;;;1.40;99.90;;;;;;5050567;28;20466;-64
2022/02/27 05:31:26;;;;;;;6.47;3.63;;;1.40;99.90;;;;;;5048927;28;20551;-64
2022/02/27 05:33:54;;;;;;;4.83;3.40;;;1.30;99.90;;;;;;5031241;28;20468;-64
2022/02/27 05:36:22;;;;;;;5.70;3.80;;;1.30;99.90;;;;;;5031731;28;20494;-64
2022/02/27 05:38:51;;;;;;;6.77;3.57;;;1.30;99.90;;;;;;5031777;28;20479;-64
2022/02/27 05:41:19;;;;;;;6.13;3.30;;;1.20;99.90;;;;;;5031753;28;20887;-64
2022/02/27 05:43:56;;;;;;;5.37;3.50;;;1.20;99.90;;;;;;5028539;28;20505;-64
2022/02/27 05:46:25;;;;;;;6.87;3.17;;;1.20;99.90;;;;;;5020781;28;20492;-64
2022/02/27 05:48:53;;;;;;;5.17;3.27;;;1.20;99.90;;;;;;5027144;28;20480;-63
2022/02/27 05:51:22;;;;;;;5.87;3.03;;;1.20;99.90;;;;;;5031237;28;20544;-64
2022/02/27 05:53:51;;;;;;;6.47;3.23;;;1.20;99.90;;;;;;5030397;28;20494;-64
2022/02/27 05:56:19;;;;;;;6.13;3.50;;;1.20;99.90;;;;;;5020943;28;20670;-64
2022/02/27 05:58:48;;;;;;;6.97;3.67;;;1.20;99.90;;;;;;5022410;28;20567;-64
2022/02/27 06:01:17;;;;;;;6.50;3.50;;;1.10;99.90;;;;;;5020227;28;20473;-63
2022/02/27 06:03:46;;;;;;;5.77;3.40;;;1.10;99.90;;;;;;5011412;28;21004;-64
2022/02/27 06:06:14;;;;;;;4.93;2.83;;;1.20;99.90;;;;;;5011609;28;20503;-64
2022/02/27 06:08:42;;;;;;;6.30;3.47;;;1.10;99.90;;;;;;5047645;28;20482;-64
2022/02/27 06:11:10;;;;;;;7.23;3.80;;;1.20;99.90;;;;;;5051064;28;20935;-64
2022/02/27 06:13:38;;;;;;;5.53;3.10;;;1.20;99.90;;;;;;5023972;28;20475;-64
2022/02/27 06:16:06;;;;;;;4.23;3.07;;;1.20;99.90;;;;;;5023775;28;20991;-64
2022/02/27 06:18:36;;;;;;;6.60;3.17;;;1.10;99.90;;;;;;5024336;28;21045;-64
2022/02/27 06:21:05;;;;;;;6.43;3.33;;;1.20;99.90;;;;;;5020484;28;20883;-64
2022/02/27 06:23:33;;;;;;;7.70;3.77;;;1.20;99.90;;;;;;5021464;28;20461;-63
2022/02/27 06:26:01;;;;;;;6.77;3.90;;;1.40;99.90;;;;;;5020104;28;20538;-64
2022/02/27 06:28:29;;;;;;;6.43;3.47;;;1.30;99.90;;;;;;5024762;28;20475;-64
2022/02/27 06:30:57;;;;;;;5.73;3.43;;;1.40;99.90;;;;;;5023494;28;20502;-64
2022/02/27 06:33:25;;;;;;;6.07;3.60;;;1.30;99.90;;;;;;5021687;28;20467;-64
2022/02/27 06:35:55;;;;;;;7.90;4.30;;;1.30;99.90;;;;;;5021444;28;20514;-64
2022/02/27 06:38:26;;;;;;;6.60;3.83;;;1.20;99.90;;;;;;5020693;28;20534;-62
2022/02/27 06:40:54;;;;;;;7.93;3.93;;;1.20;99.90;;;;;;5019351;28;20968;-64
2022/02/27 06:43:22;;;;;;;6.43;3.57;;;1.20;99.90;;;;;;5021983;28;20547;-64
2022/02/27 06:45:50;;;;;;;5.93;3.70;;;1.30;99.90;;;;;;5019776;28;20456;-64
2022/02/27 06:48:18;;;;;;;8.90;4.40;;;1.20;99.90;;;;;;5029517;28;20972;-64
2022/02/27 06:50:46;;;;;;;6.67;4.07;;;1.30;99.90;;;;;;5026042;28;20491;-64
2022/02/27 06:53:16;;;;;;;8.07;4.60;;;1.30;99.90;;;;;;5027660;28;20500;-64
2022/02/27 06:55:44;;;;;;;6.90;4.00;;;1.40;99.90;;;;;;5030584;28;20480;-64
2022/02/27 06:58:14;;;;;;;7.60;3.97;;;1.40;99.90;;;;;;5030300;28;20525;-64
2022/02/27 07:00:42;;;;;;;7.67;4.30;;;1.50;99.90;;;;;;5029757;28;20844;-64
2022/02/27 07:03:12;;;;;;;6.47;4.00;;;1.60;99.90;;;;;;5025385;28;20480;-64
2022/02/27 07:05:40;;;;;;;6.70;3.90;;;1.60;99.90;;;;;;5010747;28;20993;-64
2022/02/27 07:08:08;;;;;;;6.27;3.60;;;1.70;99.90;;;;;;5026235;28;20490;-64
2022/02/27 07:10:38;;;;;;;8.50;3.87;;;1.80;99.90;;;;;;5020545;28;20523;-64
2022/02/27 07:13:06;;;;;;;7.93;5.47;;;1.80;99.90;;;;;;5021058;28;20472;-64
2022/02/27 07:15:34;;;;;;;7.57;4.30;;;1.90;99.90;;;;;;5019921;28;21042;-64
2022/02/27 07:18:02;;;;;;;9.77;5.57;;;2.00;99.90;;;;;;5021417;28;20494;-64
2022/02/27 07:20:31;;;;;;;7.17;5.23;;;2.10;99.90;;;;;;5019401;28;20470;-63
2022/02/27 07:22:59;;;;;;;9.63;5.97;;;2.20;99.90;;;;;;5022136;28;20472;-61
2022/02/27 07:25:27;;;;;;;8.03;5.60;;;2.30;99.90;;;;;;5022890;28;20464;-64
2022/02/27 07:27:57;;;;;;;8.13;5.37;;;2.40;99.90;;;;;;5026936;28;20523;-64
2022/02/27 07:30:25;;;;;;;10.60;4.90;;;2.40;99.90;;;;;;5018953;28;20984;-63
2022/02/27 07:32:54;;;;;;;7.07;4.80;;;2.50;99.90;;;;;;5021498;28;20523;-64
2022/02/27 07:35:22;;;;;;;9.43;5.60;;;2.70;99.90;;;;;;5018952;28;20463;-63
2022/02/27 07:37:50;;;;;;;12.07;7.03;;;2.80;99.90;;;;;;5027223;28;20495;-63
2022/02/27 07:40:18;;;;;;;14.37;8.23;;;3.10;99.90;;;;;;5033470;28;20467;-64
2022/02/27 07:42:47;;;;;;;12.00;8.43;;;3.30;99.90;;;;;;5033697;28;20507;-63
2022/02/27 07:45:18;;;;;;;12.47;7.60;;;3.40;99.90;;;;;;5033765;28;20475;-64
2022/02/27 07:47:46;;;;;;;8.73;5.73;;;3.60;99.90;;;;;;5033321;28;20496;-63
2022/02/27 07:50:14;;;;;;;11.53;5.90;;;3.70;99.90;;;;;;5033745;28;20472;-63
2022/02/27 07:52:42;;;;;;;10.17;6.90;;;3.90;99.90;;;;;;5033708;28;20569;-63
2022/02/27 07:55:10;;;;;;;12.47;6.60;;;4.00;99.90;;;;;;5033660;28;20475;-63
2022/02/27 07:57:39;;;;;;;11.63;7.20;;;4.10;99.90;;;;;;5033220;28;20554;-63
2022/02/27 08:00:08;;;;;;;11.33;7.40;;;4.40;99.90;;;;;;5032708;28;20477;-62
2022/02/27 08:02:42;;;;;;;12.13;8.07;;;4.50;99.90;;;;;;5025713;28;20960;-63
2022/02/27 08:05:11;;;;;;;11.27;6.67;;;4.80;99.90;;;;;;5024269;28;20473;-63
2022/02/27 08:07:39;;;;;;;11.07;5.47;;;4.90;99.90;;;;;;5024238;28;20483;-63
2022/02/27 08:10:10;;;;;;;9.40;6.33;;;5.00;99.90;;;;;;5026444;28;20835;-63
2022/02/27 08:12:41;;;;;;;8.43;5.07;;;4.90;99.90;;;;;;5024013;28;20564;-63
2022/02/27 08:15:12;;;;;;;10.27;5.60;;;5.10;99.90;;;;;;5023683;28;20958;-63
2022/02/27 08:17:42;;;;;;;7.07;4.10;;;5.30;99.90;;;;;;5028158;28;20532;-63
2022/02/27 08:20:11;;;;;;;7.83;4.23;;;5.40;99.90;;;;;;5029959;28;20482;-63
2022/02/27 08:22:40;;;;;;;8.87;4.50;;;5.50;99.90;;;;;;5025271;28;20545;-63
2022/02/27 08:25:09;;;;;;;8.20;4.00;;;5.80;99.90;;;;;;5023937;28;20471;-63
2022/02/27 08:27:37;;;;;;;6.90;4.70;;;5.90;99.90;;;;;;5026368;28;20247;-63
2022/02/27 08:30:07;;;;;;;8.00;3.67;;;6.00;99.90;;;;;;5025870;28;20487;-63
2022/02/27 08:32:37;;;;;;;5.17;3.70;;;6.00;99.90;;;;;;5032058;28;20256;-63
2022/02/27 08:35:07;;;;;;;5.27;3.50;;;6.20;99.90;;;;;;5014574;28;20482;-63
2022/02/27 08:37:38;;;;;;;5.50;4.20;;;6.40;99.90;;;;;;5021865;28;20478;-63
2022/02/27 08:40:08;;;;;;;5.50;3.70;;;6.70;99.90;;;;;;5023145;28;20236;-63
2022/02/27 08:42:36;;;;;;;7.43;3.77;;;6.80;99.90;;;;;;5028819;28;20509;-63
2022/02/27 08:45:04;;;;;;;6.10;3.50;;;7.00;99.90;;;;;;5026646;28;20240;-63
2022/02/27 08:47:33;;;;;;;6.33;3.57;;;7.10;99.90;;;;;;5026712;28;20311;-63
2022/02/27 08:50:01;;;;;;;6.27;3.00;;;7.10;99.90;;;;;;5022016;28;20538;-63
2022/02/27 08:52:31;;;;;;;7.07;4.00;;;7.20;99.90;;;;;;5027495;28;20264;-63
2022/02/27 08:55:03;;;;;;;7.57;3.63;;;7.40;99.90;;;;;;5027630;28;20248;-60
2022/02/27 08:57:33;;;;;;;6.80;4.13;;;7.60;99.90;;;;;;5025213;28;20772;-62
2022/02/27 09:00:08;;;;;;;8.17;3.90;;;7.70;99.90;;;;;;5025123;28;20723;-62
2022/02/27 09:02:38;;;;;;;6.47;3.90;;;7.60;99.90;;;;;;5024978;28;20259;-62
2022/02/27 09:05:10;;;;;;;7.47;3.90;;;7.70;99.90;;;;;;5026952;28;20598;-62
2022/02/27 09:07:41;;;;;;;7.07;4.10;;;7.70;99.90;;;;;;5023638;28;20237;-62
2022/02/27 09:10:13;;;;;;;8.17;4.60;;;7.90;99.90;;;;;;5026620;28;20236;-62
2022/02/27 09:12:44;;;;;;;6.20;3.97;;;7.90;99.90;;;;;;5006724;28;20260;-62
2022/02/27 09:15:14;;;;;;;8.80;4.03;;;7.90;99.90;;;;;;5007217;28;20228;-62
2022/02/27 09:17:44;;;;;;;8.07;4.27;;;7.90;99.90;;;;;;5006776;28;20241;-62
2022/02/27 09:20:15;;;;;;;8.47;4.07;;;7.90;99.90;;;;;;4989560;28;20376;-62
2022/02/27 09:22:46;;;;;;;7.50;3.80;;;8.00;99.90;;;;;;4988838;28;20240;-62
2022/02/27 09:25:14;;;;;;;6.23;3.83;;;8.30;99.90;;;;;;5008039;28;20233;-62
2022/02/27 09:28:02;;;;;;;6.47;3.97;;;8.40;99.90;;;;;;5024033;28;20240;-62
2022/02/27 09:30:30;;;;;;;8.30;4.10;;;8.40;99.90;;;;;;5027320;28;20240;-62
2022/02/27 09:32:59;;;;;;;6.87;3.67;;;8.60;99.90;;;;;;5026074;28;20308;-62
2022/02/27 09:35:28;;;;;;;7.10;4.40;;;8.60;99.90;;;;;;5027593;28;20241;-62
2022/02/27 09:37:59;;;;;;;7.53;3.83;;;8.60;99.90;;;;;;5026741;28;20745;-62
2022/02/27 09:40:28;;;;;;;9.43;3.90;;;8.70;99.90;;;;;;5026037;28;20315;-62
2022/02/27 09:42:57;;;;;;;7.00;3.87;;;8.70;99.90;;;;;;5024926;28;20294;-62
2022/02/27 09:45:26;;;;;;;8.30;4.43;;;8.90;99.90;;;;;;5027185;28;20237;-62
2022/02/27 09:47:57;;;;;;;7.47;3.87;;;8.90;99.90;;;;;;5027210;28;20685;-62
2022/02/27 09:50:26;;;;;;;6.90;3.73;;;8.80;99.90;;;;;;5026557;28;20260;-62
2022/02/27 09:52:58;;;;;;;5.53;3.87;;;9.00;99.90;;;;;;5024479;28;20656;-62
2022/02/27 09:55:27;;;;;;;7.60;4.10;;;9.20;99.90;;;;;;5026790;28;20319;-62
2022/02/27 09:57:55;;;;;;;6.43;3.83;;;9.30;99.90;;;;;;5026054;28;20237;-62
2022/02/27 10:00:23;;;;;;;5.10;3.60;;;9.40;99.90;;;;;;5026262;28;20232;-62
2022/02/27 10:03:06;;;;;;;5.47;3.20;;;9.30;99.90;;;;;;5023722;28;20804;-62
2022/02/27 10:05:35;;;;;;;5.93;3.30;;;9.50;99.90;;;;;;5026180;28;20724;-62
2022/02/27 10:08:07;;;;;;;5.23;3.37;;;9.70;99.90;;;;;;5026478;28;20240;-62
2022/02/27 10:10:36;;;;;;;5.80;3.37;;;9.70;99.90;;;;;;5025450;28;20316;-62
2022/02/27 10:13:06;;;;;;;6.40;3.37;;;9.70;99.90;;;;;;5024680;28;20331;-62
2022/02/27 10:15:35;;;;;;;5.67;3.67;;;9.70;99.90;;;;;;5026507;28;20304;-62
2022/02/27 10:18:17;;;;;;;8.00;3.27;;;9.60;99.90;;;;;;5025495;28;20648;-62
2022/02/27 10:20:45;;;;;;;11.77;5.40;;;9.50;99.90;;;;;;5025223;28;20252;-62
2022/02/27 10:23:26;;;;;;;7.67;4.10;;;9.50;99.90;;;;;;5023031;28;20275;-62
2022/02/27 10:25:54;;;;;;;6.23;3.43;;;9.70;99.90;;;;;;5014707;28;20295;-62
2022/02/27 10:28:22;;;;;;;6.87;3.23;;;9.80;99.90;;;;;;5006479;28;20244;-62
2022/02/27 10:30:51;;;;;;;6.03;3.30;;;9.90;99.90;;;;;;5005822;28;20829;-62
2022/02/27 10:33:23;;;;;;;5.57;3.07;;;10.10;99.90;;;;;;5006352;28;20317;-62
2022/02/27 10:35:52;;;;;;;9.67;5.33;;;9.70;99.90;;;;;;5003135;28;20299;-62
2022/02/27 10:38:36;;;;;;;4.87;3.37;;;9.80;99.90;;;;;;5010328;28;20265;-62
2022/02/27 10:41:10;;;;;;;7.20;3.30;;;9.90;99.90;;;;;;5007982;28;20234;-62
2022/02/27 10:43:42;;;;;;;5.70;3.30;;;9.90;99.90;;;;;;4998137;28;20263;-62
2022/02/27 10:46:13;;;;;;;6.00;2.63;;;10.20;99.90;;;;;;5009008;28;20230;-62
2022/02/27 10:48:41;;;;;;;5.70;2.73;;;10.30;99.90;;;;;;5009249;28;20613;-62
2022/02/27 10:51:11;;;;;;;5.47;2.97;;;10.00;99.90;;;;;;4995568;28;20349;-62
2022/02/27 10:53:42;;;;;;;6.20;3.13;;;10.20;99.90;;;;;;4991072;28;20238;-62
2022/02/27 10:56:12;;;;;;;6.07;2.80;;;10.30;99.90;;;;;;4994045;28;20702;-62
2022/02/27 10:58:42;;;;;;;7.00;3.20;;;10.20;99.90;;;;;;4998041;28;20706;-62
2022/02/27 11:01:18;;;;;;;6.63;3.00;;;10.10;99.90;;;;;;4999641;28;20250;-62
2022/02/27 11:03:48;;;;;;;5.53;2.50;;;9.90;99.90;;;;;;5006240;28;20239;-62
2022/02/27 11:06:17;;;;;;;6.70;2.90;;;9.90;99.90;;;;;;5009146;28;20262;-62
2022/02/27 11:08:47;;;;;;;8.00;3.10;;;10.00;99.90;;;;;;5010380;28;21372;-62
2022/02/27 11:11:15;;;;;;;4.67;2.47;;;10.30;99.90;;;;;;5004097;28;20284;-62
2022/02/27 11:13:45;;;;;;;4.57;2.53;;;10.40;99.90;;;;;;5013901;28;20714;-62
2022/02/27 11:16:15;;;;;;;7.83;2.70;;;10.40;99.90;;;;;;5002269;28;20244;-62
2022/02/27 11:18:44;;;;;;;5.57;2.97;;;10.30;99.90;;;;;;5013785;28;20234;-62
2022/02/27 11:21:15;;;;;;;4.90;2.53;;;10.20;99.90;;;;;;4998928;28;20747;-62
2022/02/27 11:23:44;;;;;;;7.07;2.60;;;10.40;99.90;;;;;;5014563;28;20246;-62
2022/02/27 11:26:19;;;;;;;6.77;2.80;;;10.60;99.90;;;;;;5014507;28;20242;-62
2022/02/27 11:28:47;;;;;;;5.40;2.37;;;10.30;99.90;;;;;;5031229;28;20292;-62
2022/02/27 11:31:16;;;;;;;5.67;2.30;;;10.30;99.90;;;;;;5033555;28;20237;-62
2022/02/27 11:33:44;;;;;;;4.80;2.17;;;10.40;99.90;;;;;;5013878;28;20291;-62
2022/02/27 11:36:21;;;;;;;5.17;2.40;;;10.40;99.90;;;;;;5014057;28;20240;-62
2022/02/27 11:39:00;;;;;;;6.20;2.60;;;10.20;99.90;;;;;;5013753;28;20295;-62
2022/02/27 11:41:46;;;;;;;7.33;2.83;;;10.50;99.90;;;;;;5014177;28;20247;-62
2022/02/27 11:44:15;;;;;;;5.57;2.73;;;10.60;99.90;;;;;;5014170;28;20240;-62
2022/02/27 11:46:44;;;;;;;4.37;2.40;;;10.70;99.90;;;;;;5013920;28;20242;-62
2022/02/27 11:49:18;;;;;;;4.63;2.43;;;10.70;99.90;;;;;;5017485;28;20250;-62
2022/02/27 11:52:06;;;;;;;3.97;2.23;;;10.80;99.90;;;;;;5013705;28;20730;-62
2022/02/27 11:54:49;;;;;;;4.63;2.40;;;10.70;99.90;;;;;;5013610;28;20645;-62
2022/02/27 11:57:25;;;;;;;6.10;2.57;;;10.70;99.90;;;;;;5013665;28;20268;-62
2022/02/27 12:00:01;;;;;;;5.70;2.43;;;10.70;99.90;;;;;;5013909;28;20242;-62
2022/02/27 12:02:44;;;;;;;6.40;2.77;;;10.70;99.90;;;;;;5012770;28;20261;-62
2022/02/27 12:05:15;;;;;;;4.87;2.40;;;10.60;99.90;;;;;;4998362;28;20235;-62
2022/02/27 12:08:06;;;;;;;5.97;2.40;;;10.60;99.90;;;;;;5006415;28;20285;-62
2022/02/27 12:10:36;;;;;;;5.40;3.07;;;10.70;99.90;;;;;;5013469;28;20234;-62
2022/02/27 12:13:18;;;;;;;3.43;2.13;;;10.50;99.90;;;;;;5013103;28;20357;-61
2022/02/27 12:15:47;;;;;;;3.87;2.40;;;10.40;99.90;;;;;;5013151;28;20297;-62
2022/02/27 12:18:23;;;;;;;6.03;2.60;;;10.50;99.90;;;;;;5013575;28;20317;-62
2022/02/27 12:20:57;;;;;;;7.17;2.60;;;10.50;99.90;;;;;;5012657;28;20264;-62
2022/02/27 12:23:47;;;;;;;7.17;2.37;;;10.50;99.90;;;;;;5009931;28;20261;-62
2022/02/27 12:26:51;;;;;;;7.43;2.87;;;10.50;99.90;;;;;;5011925;28;20619;-62
2022/02/27 12:29:33;;;;;;;6.23;2.60;;;10.60;99.90;;;;;;5006908;28;20241;-63
2022/02/27 12:32:16;;;;;;;4.23;2.47;;;10.60;99.90;;;;;;5012768;28;20235;-62
2022/02/27 12:34:48;;;;;;;5.67;2.70;;;10.70;99.90;;;;;;5006536;28;20645;-63
2022/02/27 12:37:18;;;;;;;4.50;2.87;;;10.70;99.90;;;;;;5013093;28;20239;-63
2022/02/27 12:39:48;;;;;;;5.63;2.47;;;10.50;99.90;;;;;;5013093;28;20277;-62
2022/02/27 12:42:19;;;;;;;3.83;2.07;;;10.70;99.90;;;;;;5013016;28;20242;-62
2022/02/27 12:44:51;;;;;;;3.47;2.30;;;10.70;99.90;;;;;;5012874;28;20246;-63
2022/02/27 12:47:22;;;;;;;5.23;2.20;;;10.70;99.90;;;;;;5012753;28;20238;-63
2022/02/27 12:50:16;;;;;;;5.80;2.30;;;10.70;99.90;;;;;;5017971;28;20238;-63
2022/02/27 12:52:46;;;;;;;5.23;2.20;;;10.60;99.90;;;;;;5008094;28;20238;-63
2022/02/27 12:55:17;;;;;;;8.13;3.00;;;10.70;99.90;;;;;;5011596;28;20238;-63
2022/02/27 12:57:47;;;;;;;6.40;2.83;;;10.60;99.90;;;;;;5012276;28;20300;-63
2022/02/27 13:00:19;;;;;;;7.67;2.90;;;10.70;99.90;;;;;;5011110;28;20285;-62
2022/02/27 13:02:48;;;;;;;6.93;2.67;;;10.60;99.90;;;;;;5003007;28;20294;-63
2022/02/27 13:05:17;;;;;;;5.40;2.80;;;10.60;99.90;;;;;;5018499;28;20283;-63
2022/02/27 13:07:45;;;;;;;5.37;2.63;;;10.70;99.90;;;;;;5023403;28;20297;-63
2022/02/27 13:10:17;;;;;;;5.87;3.87;;;10.60;99.90;;;;;;5012600;28;20264;-63